createdAt,value
2023-05-24T00:06:14.764Z,94197.97
2023-05-24T00:21:16.509Z,94197.03
2023-05-24T00:36:18.250Z,94188.38
2023-05-24T00:51:20.179Z,94195.28
2023-05-24T01:06:23.552Z,94195.44
2023-05-24T01:21:48.507Z,94204.06
2023-05-24T01:36:50.606Z,94213.41
2023-05-24T01:52:12.358Z,94206.22
2023-05-24T02:07:14.170Z,94196.44
2023-05-24T02:22:18.794Z,94185.78
2023-05-24T02:37:20.773Z,94178.22
2023-05-24T02:52:23.368Z,94189.91
2023-05-24T03:07:25.088Z,94198.41
2023-05-24T03:22:26.920Z,94202.91
2023-05-24T03:37:28.689Z,94217.31
2023-05-24T03:52:30.407Z,94213.53
2023-05-24T04:07:33.987Z,94223.91
2023-05-24T04:22:36.332Z,94228.22
2023-05-24T04:37:38.056Z,94232.50
2023-05-24T04:52:39.885Z,94254.72
2023-05-24T05:07:41.706Z,94252.47
2023-05-24T05:22:49.900Z,94266.25
2023-05-24T05:37:51.636Z,94275.81
2023-05-24T05:52:53.337Z,94273.25
2023-05-24T06:07:55.141Z,94292.53
2023-05-24T06:22:57.400Z,94288.91
2023-05-24T06:37:59.258Z,94282.41
2023-05-24T06:53:02.941Z,94280.91
2023-05-24T07:08:04.907Z,94271.69
2023-05-24T07:23:07.184Z,94280.31
2023-05-24T07:38:09.067Z,94282.81
2023-05-24T07:53:10.929Z,94283.72
2023-05-24T08:08:12.838Z,94271.31
2023-05-24T08:23:14.648Z,94274.16
2023-05-24T08:38:16.462Z,94272.69
2023-05-24T08:53:19.326Z,94260.41
2023-05-24T09:08:21.761Z,94261.28
2023-05-24T09:23:26.955Z,94261.94
2023-05-24T09:38:29.669Z,94253.94
2023-05-24T09:53:34.012Z,94254.84
2023-05-24T10:08:39.100Z,94231.31
2023-05-24T10:23:44.668Z,94236.06
2023-05-24T10:38:47.466Z,94224.91
2023-05-24T10:53:50.824Z,94197.78
2023-05-24T11:08:53.859Z,94185.41
2023-05-24T11:23:55.611Z,94182.66
2023-05-24T11:38:57.471Z,94166.88
2023-05-24T11:54:00.229Z,94156.53
2023-05-24T12:09:02.258Z,94156.09
2023-05-24T12:24:14.963Z,94143.09
2023-05-24T12:39:24.310Z,94127.81
2023-05-24T12:54:27.851Z,94119.59
2023-05-24T13:09:29.664Z,94107.47
2023-05-24T13:24:31.429Z,94089.69
2023-05-24T13:39:33.288Z,94094.28
2023-05-24T13:54:35.041Z,94106.06
2023-05-24T14:09:37.056Z,94146.78
2023-05-24T14:24:39.279Z,94149.41
2023-05-24T14:39:41.030Z,94147.41
2023-05-24T14:54:42.785Z,94131.31
2023-05-24T15:09:44.530Z,94127.50
2023-05-24T15:24:47.242Z,94118.34
2023-05-24T15:39:49.728Z,94122.53
2023-05-24T15:54:51.445Z,94126.03
2023-05-24T16:09:53.242Z,94134.81
2023-05-24T16:24:55.054Z,94150.22
2023-05-24T16:39:57.138Z,94156.56
2023-05-24T16:54:59.098Z,94153.44
2023-05-24T17:10:00.855Z,94164.78
2023-05-24T17:25:02.582Z,94165.06
2023-05-24T17:40:04.680Z,94176.97
2023-05-24T17:55:07.326Z,94195.19
2023-05-24T18:10:09.267Z,94216.13
2023-05-24T18:25:11.103Z,94231.66
2023-05-24T18:40:15.553Z,94261.56
2023-05-24T18:55:17.731Z,94280.34
2023-05-24T19:10:19.498Z,94297.81
2023-05-24T19:25:21.410Z,94307.88
2023-05-24T19:40:23.519Z,94322.84
2023-05-24T19:55:25.280Z,94309.59
2023-05-24T20:10:29.869Z,94317.84
2023-05-24T20:25:31.765Z,94309.91
2023-05-24T20:40:33.663Z,94312.06
2023-05-24T20:55:35.588Z,94325.22
2023-05-24T21:10:38.171Z,94337.78
2023-05-24T21:25:40.019Z,94343.13
2023-05-24T21:40:41.714Z,94346.88
2023-05-24T21:55:43.774Z,94352.97
2023-05-24T22:10:45.914Z,94343.91
2023-05-24T22:25:47.815Z,94351.69
2023-05-24T22:40:49.510Z,94363.03
2023-05-24T22:55:51.573Z,94366.63
2023-05-24T23:10:54.130Z,94356.38
2023-05-24T23:25:56.269Z,94338.00
2023-05-24T23:40:57.989Z,94333.28
2023-05-24T23:55:59.700Z,94346.50
